TimeCST,TemperatureF,Dew PointF,Humidity,Sea Level PressureIn,VisibilityMPH,Wind Direction,Wind SpeedMPH,Gust SpeedMPH,PrecipitationIn,Events,Conditions,WindDirDegrees,DateUTC
12:52 AM,55.0,43.0,64,29.68,10.0,SSW,20.7,36.8,N/A,,Partly Cloudy,200,2011-11-06 05:52:00
1:52 AM,55.4,42.8,63,29.69,10.0,SSW,18.4,27.6,N/A,,Clear,210,2011-11-06 06:52:00
1:52 AM,55.0,43.0,64,29.70,10.0,SSW,20.7,28.8,N/A,,Clear,200,2011-11-06 07:52:00
2:52 AM,54.0,44.1,69,29.73,10.0,SSW,18.4,26.5,N/A,,Clear,210,2011-11-06 08:52:00
3:52 AM,53.1,44.1,71,29.73,10.0,SSW,17.3,-,N/A,,Clear,200,2011-11-06 09:52:00
4:52 AM,51.1,44.1,77,29.78,10.0,SW,12.7,20.7,N/A,,Clear,220,2011-11-06 10:52:00
5:52 AM,50.0,44.1,80,29.81,10.0,SW,11.5,-,N/A,,Clear,220,2011-11-06 11:52:00
6:52 AM,46.0,43.0,89,29.86,10.0,SW,3.5,-,N/A,,Clear,230,2011-11-06 12:52:00
7:52 AM,48.9,43.0,80,29.91,10.0,WSW,5.8,-,N/A,,Clear,250,2011-11-06 13:52:00
8:52 AM,53.1,39.0,59,29.94,10.0,Variable,5.8,-,N/A,,Clear,0,2011-11-06 14:52:00
9:52 AM,55.0,34.0,45,29.97,10.0,Variable,5.8,-,N/A,,Clear,0,2011-11-06 15:52:00
10:52 AM,55.9,32.0,40,29.98,10.0,Variable,3.5,-,N/A,,Clear,0,2011-11-06 16:52:00
11:52 AM,60.1,32.0,35,29.96,10.0,Variable,6.9,-,N/A,,Clear,0,2011-11-06 17:52:00
12:52 PM,60.1,30.0,32,29.94,10.0,NNE,8.1,-,N/A,,Clear,20,2011-11-06 18:52:00
1:52 PM,62.6,28.4,27,29.93,10.0,East,4.6,-,N/A,,Clear,80,2011-11-06 19:52:00
2:52 PM,62.1,30.0,30,29.94,10.0,ESE,5.8,-,N/A,,Clear,120,2011-11-06 20:52:00
3:52 PM,61.0,28.9,30,29.95,10.0,ESE,4.6,-,N/A,,Clear,110,2011-11-06 21:52:00
4:52 PM,57.0,30.0,36,29.97,10.0,NNE,3.5,-,N/A,,Clear,20,2011-11-06 22:52:00
5:52 PM,53.6,28.4,38,29.99,10.0,North,4.6,-,N/A,,Clear,350,2011-11-06 23:52:00
6:52 PM,51.1,27.0,39,30.01,10.0,North,4.6,-,N/A,,Clear,350,2011-11-07 00:52:00
7:52 PM,46.0,28.9,51,30.04,10.0,Calm,Calm,-,N/A,,Clear,0,2011-11-07 01:52:00
8:52 PM,42.1,30.0,62,30.06,10.0,Calm,Calm,-,N/A,,Clear,0,2011-11-07 02:52:00
9:52 PM,39.9,30.0,68,30.08,10.0,Calm,Calm,-,N/A,,Clear,0,2011-11-07 03:52:00
10:52 PM,39.0,30.9,73,30.09,10.0,Calm,Calm,-,N/A,,Clear,0,2011-11-07 04:52:00